Time;durP1;ratioP1;P1;durP2;ratioP2;P2;SDS_P1;SDS_P2;PMS_P1;PMS_P2;Temp;Humidity;BMP_temperature;BMP_pressure;BME280_temperature;BME280_humidity;BME280_pressure;Samples;Min_cycle;Max_cycle;Signal;HPM_P1;HPM_P2
2022/03/08 00:01:43;;;;;;;11.33;7.87;;;4.00;64.40;;;;;;5130435;27;20027;-81
2022/03/08 00:04:08;;;;;;;11.70;6.70;;;3.90;64.40;;;;;;5132311;27;20422;-80
2022/03/08 00:06:34;;;;;;;14.60;8.45;;;3.90;64.50;;;;;;5114903;27;20067;-80
2022/03/08 00:09:00;;;;;;;13.50;8.00;;;3.90;64.50;;;;;;5113904;27;20027;-80
2022/03/08 00:11:26;;;;;;;12.13;8.25;;;3.90;64.70;;;;;;5115989;27;20091;-81
2022/03/08 00:13:52;;;;;;;15.55;8.75;;;3.90;64.70;;;;;;5115425;27;20038;-81
2022/03/08 00:16:18;;;;;;;17.00;10.02;;;3.90;64.80;;;;;;5115164;27;20023;-81
2022/03/08 00:18:44;;;;;;;12.63;7.88;;;3.90;64.70;;;;;;5134352;27;20042;-81
2022/03/08 00:21:12;;;;;;;15.57;8.98;;;3.90;64.70;;;;;;5135240;27;20472;-80
2022/03/08 00:23:38;;;;;;;14.52;8.85;;;3.90;64.70;;;;;;5116673;27;20031;-80
2022/03/08 00:26:04;;;;;;;15.68;9.60;;;3.90;64.70;;;;;;5133737;27;20470;-82
2022/03/08 00:28:30;;;;;;;14.52;8.40;;;3.80;65.10;;;;;;5133828;27;20102;-82
2022/03/08 00:30:56;;;;;;;15.45;9.18;;;3.90;65.00;;;;;;5134166;27;20106;-82
2022/03/08 00:33:22;;;;;;;13.88;8.95;;;3.90;65.90;;;;;;5134205;27;20027;-81
2022/03/08 00:35:48;;;;;;;11.68;7.72;;;3.90;65.30;;;;;;5135433;27;20019;-81
2022/03/08 00:38:15;;;;;;;14.85;8.82;;;3.90;65.20;;;;;;5134060;27;20022;-81
2022/03/08 00:40:41;;;;;;;13.05;7.88;;;3.90;65.30;;;;;;5133658;27;20395;-80
2022/03/08 00:43:07;;;;;;;14.20;8.15;;;3.90;65.10;;;;;;5115249;27;20031;-80
2022/03/08 00:45:33;;;;;;;15.35;9.25;;;3.80;65.10;;;;;;5116440;27;20118;-80
2022/03/08 00:47:58;;;;;;;15.63;8.90;;;3.80;65.30;;;;;;5135652;27;20110;-80
2022/03/08 00:50:27;;;;;;;15.23;8.90;;;3.80;65.00;;;;;;5133752;27;20119;-81
2022/03/08 00:52:54;;;;;;;12.40;8.20;;;3.80;65.20;;;;;;5115136;27;20027;-81
2022/03/08 00:55:21;;;;;;;15.05;8.73;;;3.80;65.50;;;;;;5115022;27;20106;-81
2022/03/08 00:57:47;;;;;;;15.75;9.43;;;3.80;65.60;;;;;;5133363;27;20114;-80
2022/03/08 01:00:16;;;;;;;14.20;8.23;;;3.80;65.60;;;;;;5134329;27;20019;-79
2022/03/08 01:02:42;;;;;;;13.50;8.40;;;3.80;65.50;;;;;;5114712;27;20031;-80
2022/03/08 01:05:09;;;;;;;14.75;9.00;;;3.70;65.80;;;;;;5133056;27;20045;-81
2022/03/08 01:07:35;;;;;;;13.90;8.02;;;3.70;65.60;;;;;;5133473;27;20034;-81
2022/03/08 01:10:03;;;;;;;11.60;7.75;;;3.70;65.60;;;;;;5133360;27;20368;-81
2022/03/08 01:12:29;;;;;;;11.30;7.85;;;3.70;65.50;;;;;;5132915;27;20020;-81
2022/03/08 01:14:54;;;;;;;12.93;7.90;;;3.70;65.60;;;;;;5115851;27;20068;-80
2022/03/08 01:17:20;;;;;;;12.82;7.90;;;3.70;65.50;;;;;;5132989;27;20106;-81
2022/03/08 01:19:46;;;;;;;14.68;8.82;;;3.70;65.90;;;;;;5132795;27;20364;-81
2022/03/08 01:22:11;;;;;;;14.13;8.25;;;3.70;65.60;;;;;;5114600;27;20024;-81
2022/03/08 01:24:37;;;;;;;13.10;7.60;;;3.70;66.60;;;;;;5131517;27;20027;-80
2022/03/08 01:27:03;;;;;;;15.43;8.10;;;3.70;65.60;;;;;;5135254;27;20027;-81
2022/03/08 01:29:29;;;;;;;13.27;8.23;;;3.70;66.00;;;;;;5114774;27;20027;-81
2022/03/08 01:31:54;;;;;;;14.93;8.40;;;3.70;66.30;;;;;;5114911;27;20119;-81
2022/03/08 01:34:20;;;;;;;17.45;8.88;;;3.70;66.10;;;;;;5131089;27;20066;-81
2022/03/08 01:36:46;;;;;;;13.23;8.60;;;3.70;67.30;;;;;;5133135;27;20380;-80
2022/03/08 01:39:12;;;;;;;12.00;7.65;;;3.80;66.90;;;;;;5134327;27;20019;-80
2022/03/08 01:41:37;;;;;;;13.95;7.95;;;3.90;67.70;;;;;;5133552;27;20023;-80
2022/03/08 01:44:03;;;;;;;14.35;8.25;;;4.00;66.90;;;;;;5132496;27;20522;-79
2022/03/08 01:46:29;;;;;;;13.00;7.55;;;4.10;66.70;;;;;;5131642;27;20027;-80
2022/03/08 01:48:55;;;;;;;16.23;8.75;;;4.10;66.70;;;;;;5114282;27;20530;-79
2022/03/08 01:51:21;;;;;;;13.60;8.27;;;4.20;66.60;;;;;;5114380;27;20015;-80
2022/03/08 01:53:47;;;;;;;15.82;9.40;;;4.20;66.10;;;;;;5116356;27;20034;-79
2022/03/08 01:56:12;;;;;;;14.65;8.52;;;4.20;66.10;;;;;;5132232;27;20027;-79
2022/03/08 01:58:38;;;;;;;15.82;9.20;;;4.20;66.10;;;;;;5132471;27;20031;-79
2022/03/08 02:01:06;;;;;;;14.00;8.63;;;4.20;66.00;;;;;;5132418;27;20080;-80
2022/03/08 02:03:32;;;;;;;12.85;7.68;;;4.20;66.10;;;;;;5118205;27;20027;-80
2022/03/08 02:05:57;;;;;;;14.50;8.55;;;4.20;66.50;;;;;;5134264;27;20015;-80
2022/03/08 02:08:24;;;;;;;14.13;8.07;;;4.20;66.30;;;;;;5132318;27;20027;-80
2022/03/08 02:10:52;;;;;;;13.45;8.10;;;4.20;66.50;;;;;;5131636;27;20404;-80
2022/03/08 02:13:18;;;;;;;13.95;8.93;;;4.20;67.20;;;;;;5111449;27;20609;-80
2022/03/08 02:15:50;;;;;;;13.35;7.70;;;4.20;66.20;;;;;;5132170;27;20098;-80
2022/03/08 02:18:16;;;;;;;11.95;7.45;;;4.20;66.50;;;;;;5133076;27;20029;-78
2022/03/08 02:20:42;;;;;;;11.95;7.85;;;4.20;66.20;;;;;;5113445;27;20029;-79
2022/03/08 02:23:08;;;;;;;13.68;7.88;;;4.20;66.40;;;;;;5131872;27;20035;-78
2022/03/08 02:25:34;;;;;;;15.65;9.50;;;4.20;66.40;;;;;;5131522;27;20068;-80
2022/03/08 02:27:59;;;;;;;13.23;7.97;;;4.20;66.10;;;;;;5113339;27;20134;-80
2022/03/08 02:30:26;;;;;;;16.27;8.90;;;4.20;66.40;;;;;;5131897;27;20020;-80
2022/03/08 02:32:52;;;;;;;14.90;8.57;;;4.20;66.50;;;;;;5134038;27;20031;-81
2022/03/08 02:35:24;;;;;;;13.30;7.47;;;4.20;66.50;;;;;;5131773;27;20015;-80
2022/03/08 02:37:52;;;;;;;14.23;8.55;;;4.20;66.60;;;;;;5131677;27;20403;-80
2022/03/08 02:40:23;;;;;;;15.38;9.02;;;4.20;66.70;;;;;;5131383;27;20027;-80
2022/03/08 02:42:49;;;;;;;14.38;8.73;;;4.20;66.30;;;;;;5130246;27;20055;-80
2022/03/08 02:45:16;;;;;;;15.02;9.00;;;4.20;66.70;;;;;;5131955;27;20043;-81
2022/03/08 02:47:42;;;;;;;15.80;9.50;;;4.30;66.60;;;;;;5133456;27;20110;-79
2022/03/08 02:50:10;;;;;;;16.52;8.98;;;4.30;66.30;;;;;;5131504;27;20104;-80
2022/03/08 02:52:37;;;;;;;15.98;8.75;;;4.20;66.30;;;;;;5131467;27;20027;-79
2022/03/08 02:55:04;;;;;;;14.60;8.20;;;4.30;66.70;;;;;;5131161;27;20510;-79
2022/03/08 02:57:29;;;;;;;14.32;8.70;;;4.30;66.80;;;;;;5112191;27;20039;-80
2022/03/08 02:59:55;;;;;;;14.80;9.05;;;4.30;66.70;;;;;;5132859;27;20019;-78
2022/03/08 03:02:20;;;;;;;14.68;8.32;;;4.30;66.60;;;;;;5131266;27;20043;-81
2022/03/08 03:04:46;;;;;;;14.63;8.73;;;4.30;67.00;;;;;;5130350;27;20391;-82
2022/03/08 03:07:13;;;;;;;15.73;9.38;;;4.40;67.00;;;;;;5131049;27;20023;-79
2022/03/08 03:09:39;;;;;;;17.50;9.40;;;4.40;66.80;;;;;;5130583;27;20539;-81
2022/03/08 03:12:05;;;;;;;15.43;9.35;;;4.40;66.60;;;;;;5132194;27;20102;-80
2022/03/08 03:14:31;;;;;;;15.55;9.43;;;4.50;66.80;;;;;;5129784;27;20400;-81
2022/03/08 03:16:56;;;;;;;14.07;7.95;;;4.50;66.70;;;;;;5130404;27;20026;-80
2022/03/08 03:19:22;;;;;;;15.38;9.27;;;4.50;66.70;;;;;;5130920;27;20080;-80
2022/03/08 03:21:48;;;;;;;14.75;9.23;;;4.60;66.80;;;;;;5129691;27;20028;-80
2022/03/08 03:24:13;;;;;;;16.70;9.57;;;4.60;66.80;;;;;;5131415;28;20535;-80
2022/03/08 03:26:39;;;;;;;15.55;8.93;;;4.60;66.70;;;;;;5114257;28;20034;-80
2022/03/08 03:29:05;;;;;;;15.52;8.55;;;4.60;66.70;;;;;;5112667;28;20019;-79
2022/03/08 03:31:30;;;;;;;17.13;9.18;;;4.60;66.40;;;;;;5112544;28;20023;-79
2022/03/08 03:33:56;;;;;;;14.85;9.05;;;4.70;66.60;;;;;;5131094;27;20061;-80
2022/03/08 03:36:22;;;;;;;17.00;9.75;;;4.70;66.60;;;;;;5131229;27;20075;-81
2022/03/08 03:38:47;;;;;;;15.93;9.70;;;4.70;66.60;;;;;;5132603;27;20031;-82
2022/03/08 03:41:13;;;;;;;17.70;10.40;;;4.70;66.60;;;;;;5135321;27;20023;-82
2022/03/08 03:43:39;;;;;;;15.07;9.35;;;4.70;66.60;;;;;;5135001;27;20035;-82
2022/03/08 03:46:05;;;;;;;16.83;9.82;;;4.80;66.80;;;;;;5135081;27;20036;-82
2022/03/08 03:48:32;;;;;;;14.23;8.25;;;4.80;66.80;;;;;;5118678;27;20449;-82
2022/03/08 03:50:58;;;;;;;15.38;9.40;;;4.80;66.90;;;;;;5118298;27;20475;-81
2022/03/08 03:53:24;;;;;;;16.15;9.65;;;4.90;66.70;;;;;;5116594;27;20035;-82
2022/03/08 03:55:49;;;;;;;15.05;8.80;;;4.90;66.70;;;;;;5116379;27;20053;-82
2022/03/08 03:58:15;;;;;;;15.85;9.68;;;4.90;66.80;;;;;;5134864;27;20034;-83
2022/03/08 04:00:41;;;;;;;16.30;9.70;;;4.90;66.60;;;;;;5116990;27;20024;-80
2022/03/08 04:03:06;;;;;;;14.93;8.43;;;4.90;66.70;;;;;;5136251;27;20123;-81
2022/03/08 04:05:33;;;;;;;15.93;8.60;;;4.90;66.90;;;;;;5135090;27;20053;-81
2022/03/08 04:07:59;;;;;;;15.02;9.48;;;5.00;67.00;;;;;;5115316;27;20031;-81
2022/03/08 04:10:25;;;;;;;14.35;8.73;;;5.00;66.80;;;;;;5134655;27;20494;-81
2022/03/08 04:12:50;;;;;;;17.63;9.73;;;5.00;66.90;;;;;;5134499;27;20023;-81
2022/03/08 04:15:17;;;;;;;14.27;8.50;;;5.00;66.70;;;;;;5135381;27;20026;-80
2022/03/08 04:17:43;;;;;;;17.15;9.68;;;5.10;66.90;;;;;;5134273;27;20073;-80
2022/03/08 04:20:10;;;;;;;15.48;9.10;;;5.10;66.70;;;;;;5133474;27;20015;-80
2022/03/08 04:22:36;;;;;;;16.52;9.55;;;5.00;66.50;;;;;;5115821;27;20031;-80
2022/03/08 04:25:03;;;;;;;15.95;9.50;;;5.00;66.80;;;;;;5134299;27;20109;-80
2022/03/08 04:27:29;;;;;;;15.45;9.23;;;5.10;66.70;;;;;;5116001;27;20019;-80
2022/03/08 04:29:54;;;;;;;16.05;9.25;;;5.10;66.70;;;;;;5117937;27;20403;-80
2022/03/08 04:32:20;;;;;;;17.55;10.02;;;5.10;66.90;;;;;;5134104;27;20077;-81
2022/03/08 04:34:46;;;;;;;16.85;10.15;;;5.10;66.90;;;;;;5115268;27;20048;-81
2022/03/08 04:37:12;;;;;;;16.75;9.65;;;5.10;66.90;;;;;;5134150;27;20023;-81
2022/03/08 04:39:37;;;;;;;18.58;10.23;;;5.20;66.90;;;;;;5132707;27;20048;-80
2022/03/08 04:42:03;;;;;;;13.50;8.18;;;5.20;66.80;;;;;;5136024;27;20054;-80
2022/03/08 04:44:29;;;;;;;16.50;9.50;;;5.10;66.80;;;;;;5134327;27;20498;-81
2022/03/08 04:46:55;;;;;;;16.38;9.52;;;5.10;66.90;;;;;;5133989;27;20019;-81
2022/03/08 04:49:20;;;;;;;14.45;8.68;;;5.10;67.20;;;;;;5114824;27;20034;-80
2022/03/08 04:51:46;;;;;;;13.77;8.30;;;5.10;67.30;;;;;;5133934;27;20551;-80
2022/03/08 04:54:12;;;;;;;17.17;9.75;;;5.10;67.90;;;;;;5134779;27;20034;-81
2022/03/08 04:56:37;;;;;;;13.45;8.10;;;5.10;67.70;;;;;;5133612;27;20032;-81
2022/03/08 04:59:04;;;;;;;18.92;10.48;;;5.10;68.10;;;;;;5133840;27;20019;-80
2022/03/08 05:01:30;;;;;;;18.10;9.93;;;5.10;68.20;;;;;;5133477;27;20031;-80
2022/03/08 05:03:56;;;;;;;19.50;10.55;;;5.10;67.80;;;;;;5114683;27;20039;-80
2022/03/08 05:06:21;;;;;;;17.73;9.90;;;5.10;68.20;;;;;;5133639;27;20023;-79
2022/03/08 05:08:47;;;;;;;17.90;9.80;;;5.10;68.10;;;;;;5117261;27;20023;-80
2022/03/08 05:11:14;;;;;;;17.73;10.32;;;5.10;68.30;;;;;;5114674;27;20490;-81
2022/03/08 05:13:40;;;;;;;19.02;9.90;;;5.10;69.20;;;;;;5114478;27;20079;-80
2022/03/08 05:16:06;;;;;;;17.02;10.05;;;5.10;68.00;;;;;;5114742;27;20057;-78
2022/03/08 05:18:32;;;;;;;17.85;10.15;;;5.10;68.30;;;;;;5115824;27;20054;-78
2022/03/08 05:20:57;;;;;;;18.35;9.77;;;5.10;68.20;;;;;;5116813;27;20417;-78
2022/03/08 05:23:23;;;;;;;19.35;9.75;;;5.10;68.50;;;;;;5114508;27;20039;-78
2022/03/08 05:25:49;;;;;;;15.73;8.88;;;5.10;69.60;;;;;;5132860;27;20391;-78
2022/03/08 05:28:14;;;;;;;16.13;9.18;;;5.00;68.60;;;;;;5133146;27;20106;-78
2022/03/08 05:30:40;;;;;;;18.77;9.55;;;5.10;68.50;;;;;;5133027;27;20385;-78
2022/03/08 05:33:06;;;;;;;16.95;9.40;;;5.10;68.40;;;;;;5116266;27;20068;-79
2022/03/08 05:35:32;;;;;;;16.52;9.27;;;5.10;68.60;;;;;;5131518;27;20075;-79
2022/03/08 05:37:58;;;;;;;18.48;9.02;;;5.10;68.90;;;;;;5114491;27;20039;-78
2022/03/08 05:40:23;;;;;;;15.20;9.00;;;5.10;69.70;;;;;;5114482;27;20023;-78
2022/03/08 05:42:49;;;;;;;15.48;8.73;;;5.10;68.60;;;;;;5132908;27;20521;-79
2022/03/08 05:45:15;;;;;;;16.20;8.57;;;5.20;68.60;;;;;;5114869;27;20044;-79
2022/03/08 05:47:42;;;;;;;15.48;9.15;;;5.20;68.70;;;;;;5133966;27;20510;-79
2022/03/08 05:50:09;;;;;;;17.88;9.77;;;5.20;68.30;;;;;;5132653;27;20014;-79
2022/03/08 05:52:35;;;;;;;17.38;9.68;;;5.10;68.30;;;;;;5132707;27;20024;-79
2022/03/08 05:55:04;;;;;;;15.13;8.48;;;5.10;68.60;;;;;;5132684;27;20015;-79
2022/03/08 05:57:30;;;;;;;17.52;10.15;;;5.10;68.70;;;;;;5130575;27;20066;-81
2022/03/08 05:59:56;;;;;;;18.02;9.57;;;5.00;68.60;;;;;;5134071;27;20468;-81
2022/03/08 06:02:21;;;;;;;17.80;9.25;;;5.00;68.90;;;;;;5131542;27;20106;-81
2022/03/08 06:04:47;;;;;;;18.13;9.88;;;5.10;68.90;;;;;;5132111;27;20456;-80
2022/03/08 06:07:13;;;;;;;16.60;9.35;;;5.10;68.90;;;;;;5132491;27;20045;-81
2022/03/08 06:09:39;;;;;;;15.88;9.18;;;5.10;69.00;;;;;;5114195;27;20059;-80
2022/03/08 06:12:05;;;;;;;16.88;9.60;;;5.00;69.10;;;;;;5133377;27;20031;-80
2022/03/08 06:14:31;;;;;;;15.20;9.00;;;5.00;68.90;;;;;;5114929;27;20114;-79
2022/03/08 06:16:57;;;;;;;15.18;8.93;;;5.00;68.80;;;;;;5131868;27;20110;-79
2022/03/08 06:19:24;;;;;;;16.83;8.98;;;5.00;69.00;;;;;;5131784;27;20029;-79
2022/03/08 06:21:51;;;;;;;17.45;9.30;;;5.10;69.00;;;;;;5132131;27;20026;-79
2022/03/08 06:24:16;;;;;;;14.68;7.85;;;5.10;69.00;;;;;;5132275;27;20514;-79
2022/03/08 06:26:42;;;;;;;13.32;8.00;;;5.10;69.00;;;;;;5133955;27;20027;-81
2022/03/08 06:29:08;;;;;;;13.98;8.13;;;5.10;68.90;;;;;;5131963;27;20027;-81
2022/03/08 06:31:34;;;;;;;17.10;9.10;;;5.10;68.90;;;;;;5131597;27;20064;-81
2022/03/08 06:34:00;;;;;;;15.80;9.10;;;5.10;69.00;;;;;;5131975;27;20038;-81
2022/03/08 06:36:26;;;;;;;14.70;8.57;;;5.10;69.10;;;;;;5131575;27;20024;-81
2022/03/08 06:38:52;;;;;;;17.85;8.88;;;5.10;68.90;;;;;;5132822;27;20024;-81
2022/03/08 06:41:17;;;;;;;13.32;8.32;;;5.10;69.10;;;;;;5131651;27;20032;-81
2022/03/08 06:43:43;;;;;;;16.38;8.98;;;5.20;69.40;;;;;;5131366;27;20035;-80
2022/03/08 06:46:08;;;;;;;13.55;7.93;;;5.20;69.30;;;;;;5130998;27;20109;-80
2022/03/08 06:48:35;;;;;;;14.35;8.48;;;5.20;69.20;;;;;;5131665;27;20115;-80
2022/03/08 06:51:01;;;;;;;16.33;9.55;;;5.20;69.40;;;;;;5127974;27;20049;-80
2022/03/08 06:53:27;;;;;;;15.75;8.68;;;5.20;69.10;;;;;;5131032;27;20038;-80
2022/03/08 06:55:52;;;;;;;13.50;8.38;;;5.30;69.50;;;;;;5131113;27;20027;-80
2022/03/08 06:58:18;;;;;;;13.68;8.45;;;5.30;69.50;;;;;;5131314;27;20041;-80
2022/03/08 07:00:44;;;;;;;16.35;9.23;;;5.30;69.60;;;;;;5111873;27;20037;-81
2022/03/08 07:03:10;;;;;;;14.48;8.45;;;5.40;69.60;;;;;;5132440;27;20087;-84
2022/03/08 07:05:38;;;;;;;15.93;9.00;;;5.30;69.50;;;;;;5131671;27;20031;-88
2022/03/08 07:08:04;;;;;;;15.85;8.30;;;5.40;69.30;;;;;;5131396;27;20045;-85
2022/03/08 07:10:30;;;;;;;15.68;8.95;;;5.40;69.50;;;;;;5131381;27;20484;-85
2022/03/08 07:12:56;;;;;;;14.85;9.10;;;5.40;69.60;;;;;;5132137;27;20102;-85
2022/03/08 07:15:22;;;;;;;15.93;8.55;;;5.40;69.70;;;;;;5131020;27;20392;-85
2022/03/08 07:17:48;;;;;;;17.45;9.50;;;5.40;69.80;;;;;;5112707;27;20039;-85
2022/03/08 07:20:14;;;;;;;15.45;9.25;;;5.50;69.50;;;;;;5130233;27;20028;-84
2022/03/08 07:22:40;;;;;;;16.92;9.52;;;5.40;69.50;;;;;;5130443;27;20404;-83
2022/03/08 07:25:06;;;;;;;17.50;9.98;;;5.50;69.60;;;;;;5129741;27;20030;-86
2022/03/08 07:27:32;;;;;;;15.45;8.70;;;5.50;70.10;;;;;;5129442;27;20496;-86
2022/03/08 07:29:58;;;;;;;13.77;8.18;;;5.60;70.40;;;;;;5129787;27;20031;-83
2022/03/08 07:32:23;;;;;;;14.52;8.48;;;5.60;71.10;;;;;;5129860;27;20031;-79
2022/03/08 07:34:49;;;;;;;14.93;8.57;;;5.70;71.10;;;;;;5130410;27;20023;-78
2022/03/08 07:37:14;;;;;;;15.70;9.50;;;5.70;70.30;;;;;;5129865;27;20062;-78
2022/03/08 07:39:40;;;;;;;15.90;9.38;;;5.70;70.60;;;;;;5130490;27;20030;-79
2022/03/08 07:42:06;;;;;;;18.90;9.90;;;5.70;70.30;;;;;;5131520;27;20101;-80
2022/03/08 07:44:32;;;;;;;16.17;10.05;;;5.80;70.30;;;;;;5130944;27;20039;-80
2022/03/08 07:46:59;;;;;;;19.13;9.45;;;5.80;70.60;;;;;;5130543;27;20532;-80
2022/03/08 07:49:25;;;;;;;17.15;9.32;;;5.90;70.50;;;;;;5129931;27;20037;-79
2022/03/08 07:51:51;;;;;;;15.90;9.55;;;5.90;70.60;;;;;;5135808;27;20074;-83
2022/03/08 07:54:17;;;;;;;19.00;9.75;;;5.90;70.90;;;;;;5137607;27;20408;-86
2022/03/08 07:56:43;;;;;;;17.15;9.75;;;5.90;70.90;;;;;;5109930;27;20027;-84
2022/03/08 07:59:09;;;;;;;17.48;8.98;;;5.90;70.80;;;;;;5140756;27;20014;-81
2022/03/08 08:01:35;;;;;;;17.50;9.70;;;6.00;71.30;;;;;;5136013;27;20122;-81
2022/03/08 08:04:00;;;;;;;18.90;10.43;;;6.00;71.20;;;;;;5141417;27;20032;-81
2022/03/08 08:06:26;;;;;;;18.20;10.75;;;6.00;71.20;;;;;;5146105;27;20047;-81
2022/03/08 08:08:52;;;;;;;16.98;9.45;;;6.10;71.00;;;;;;5113527;28;20020;-81
2022/03/08 08:11:17;;;;;;;15.40;8.55;;;6.10;70.90;;;;;;5129039;27;20090;-81
2022/03/08 08:13:43;;;;;;;15.73;9.18;;;6.20;70.60;;;;;;5129658;27;20026;-80
2022/03/08 08:16:08;;;;;;;15.88;9.60;;;6.20;70.70;;;;;;5130106;27;20110;-81
2022/03/08 08:18:34;;;;;;;16.40;9.38;;;6.20;70.50;;;;;;5130514;27;20027;-81
2022/03/08 08:21:01;;;;;;;17.08;9.43;;;6.20;70.50;;;;;;5132141;27;20028;-81
2022/03/08 08:23:27;;;;;;;17.45;9.48;;;6.30;70.60;;;;;;5129677;27;20122;-81
2022/03/08 08:25:53;;;;;;;16.75;8.95;;;6.30;70.60;;;;;;5133131;27;20109;-81
2022/03/08 08:28:18;;;;;;;17.30;9.45;;;6.30;70.80;;;;;;5133749;27;20168;-81
2022/03/08 08:30:44;;;;;;;15.52;9.32;;;6.40;70.70;;;;;;5134215;27;20027;-80
2022/03/08 08:33:10;;;;;;;19.00;10.18;;;6.40;70.80;;;;;;5135144;27;20063;-80
2022/03/08 08:35:36;;;;;;;16.63;9.95;;;6.40;70.80;;;;;;5133357;27;20096;-80
2022/03/08 08:38:01;;;;;;;17.27;10.35;;;6.40;70.80;;;;;;5133626;27;20475;-80
2022/03/08 08:40:28;;;;;;;15.32;9.30;;;6.50;70.80;;;;;;5133844;27;20494;-80
2022/03/08 08:42:53;;;;;;;17.80;10.35;;;6.40;71.60;;;;;;5133090;27;20058;-81
2022/03/08 08:45:19;;;;;;;17.83;9.90;;;6.50;71.80;;;;;;5133666;27;20104;-79
2022/03/08 08:47:45;;;;;;;15.02;9.07;;;6.50;72.00;;;;;;5136074;27;20096;-79
2022/03/08 08:50:10;;;;;;;19.08;9.95;;;6.60;72.00;;;;;;5130857;27;20452;-81
2022/03/08 08:52:36;;;;;;;15.70;9.68;;;6.70;71.60;;;;;;5115075;27;20106;-82
2022/03/08 08:55:02;;;;;;;17.80;9.93;;;6.80;71.90;;;;;;5133563;27;20069;-79
2022/03/08 08:57:28;;;;;;;14.48;8.80;;;7.00;71.70;;;;;;5133215;27;20027;-79
2022/03/08 08:59:53;;;;;;;14.90;9.00;;;7.10;71.50;;;;;;5135576;27;20227;-79
2022/03/08 09:02:19;;;;;;;14.30;8.65;;;7.20;71.40;;;;;;5133097;27;20019;-79
2022/03/08 09:04:45;;;;;;;17.92;9.38;;;7.30;71.10;;;;;;5109598;27;20403;-79
2022/03/08 09:07:10;;;;;;;16.35;9.40;;;7.40;71.10;;;;;;5133444;27;20043;-79
2022/03/08 09:09:36;;;;;;;16.33;9.55;;;7.60;71.10;;;;;;5133486;27;20453;-79
2022/03/08 09:12:02;;;;;;;16.73;8.82;;;7.70;70.70;;;;;;5134849;27;20024;-79
2022/03/08 09:14:27;;;;;;;16.40;9.55;;;7.70;70.50;;;;;;5132940;27;20026;-79
2022/03/08 09:16:53;;;;;;;15.60;9.20;;;7.80;70.50;;;;;;5132676;27;20031;-79
2022/03/08 09:19:18;;;;;;;17.83;10.18;;;7.90;70.60;;;;;;5132910;27;20019;-80
2022/03/08 09:21:44;;;;;;;13.98;8.63;;;7.90;70.50;;;;;;5132964;27;20023;-81
2022/03/08 09:24:09;;;;;;;15.35;9.70;;;8.00;70.50;;;;;;5134174;27;20031;-79
2022/03/08 09:26:35;;;;;;;15.50;9.63;;;8.10;70.50;;;;;;5133298;27;20030;-79
2022/03/08 09:29:01;;;;;;;14.10;8.90;;;8.10;70.40;;;;;;5130995;27;20075;-79
2022/03/08 09:31:26;;;;;;;13.82;8.57;;;8.10;70.50;;;;;;5114306;27;20024;-79
2022/03/08 09:33:52;;;;;;;14.65;8.88;;;8.10;70.50;;;;;;5132696;27;20027;-79
2022/03/08 09:36:18;;;;;;;16.08;9.65;;;8.20;70.50;;;;;;5112830;27;20799;-78
2022/03/08 09:38:44;;;;;;;14.18;8.68;;;8.20;70.80;;;;;;5116170;27;20131;-77
2022/03/08 09:41:11;;;;;;;12.93;8.60;;;8.30;70.80;;;;;;5131621;27;20011;-77
2022/03/08 09:43:38;;;;;;;14.65;9.27;;;8.40;70.70;;;;;;5113743;27;20042;-77
2022/03/08 09:46:05;;;;;;;14.35;8.63;;;8.60;70.70;;;;;;5132042;27;20035;-77
2022/03/08 09:48:31;;;;;;;16.05;9.85;;;8.70;70.30;;;;;;5132175;27;20037;-77
2022/03/08 09:51:01;;;;;;;14.00;8.77;;;8.80;70.30;;;;;;5133796;27;20499;-78
2022/03/08 09:53:29;;;;;;;11.93;8.48;;;8.90;69.80;;;;;;5130637;27;20045;-77
2022/03/08 09:55:59;;;;;;;13.57;8.40;;;9.00;69.80;;;;;;5113503;27;20034;-77
2022/03/08 09:58:25;;;;;;;14.82;9.63;;;9.10;70.90;;;;;;5131920;27;20027;-77
2022/03/08 10:00:52;;;;;;;14.77;9.13;;;9.30;69.70;;;;;;5131933;27;20480;-77
2022/03/08 10:03:29;;;;;;;13.95;8.95;;;9.40;69.50;;;;;;5131829;27;20372;-77
2022/03/08 10:05:55;;;;;;;13.18;8.85;;;9.50;69.30;;;;;;5133402;27;20344;-77
2022/03/08 10:08:21;;;;;;;17.30;8.98;;;9.60;69.20;;;;;;5129975;27;20546;-78
2022/03/08 10:10:53;;;;;;;15.98;9.02;;;9.70;69.00;;;;;;5113495;27;20072;-78
2022/03/08 10:13:22;;;;;;;15.02;8.98;;;9.80;69.10;;;;;;5132114;27;20054;-78
2022/03/08 10:16:25;;;;;;;15.05;8.90;;;9.90;68.80;;;;;;5132071;27;20015;-77
2022/03/08 10:19:02;;;;;;;11.50;8.07;;;10.00;68.90;;;;;;5117986;27;20015;-78
2022/03/08 10:21:54;;;;;;;12.23;8.00;;;10.10;68.70;;;;;;5131989;27;20525;-77
2022/03/08 10:24:31;;;;;;;11.73;7.80;;;10.10;68.20;;;;;;5129787;27;20059;-77
2022/03/08 10:27:03;;;;;;;11.45;7.47;;;10.10;68.20;;;;;;5115505;27;20030;-77
2022/03/08 10:29:28;;;;;;;12.20;7.90;;;10.10;68.40;;;;;;5131796;27;20034;-77
2022/03/08 10:32:03;;;;;;;12.35;8.02;;;10.20;68.40;;;;;;5130180;27;20398;-77
2022/03/08 10:34:29;;;;;;;12.43;8.20;;;10.10;68.30;;;;;;5131661;27;20030;-77
2022/03/08 10:37:17;;;;;;;12.68;8.18;;;10.10;68.40;;;;;;5131618;27;20711;-77
2022/03/08 10:40:03;;;;;;;12.90;8.25;;;10.00;68.60;;;;;;5116769;27;20023;-77
2022/03/08 10:42:31;;;;;;;10.60;7.38;;;9.90;69.00;;;;;;5131264;27;20023;-77
2022/03/08 10:45:11;;;;;;;11.80;7.75;;;9.80;69.40;;;;;;5133393;27;20107;-77
2022/03/08 10:47:42;;;;;;;13.05;7.53;;;9.80;69.70;;;;;;5132211;27;20038;-77
2022/03/08 10:50:10;;;;;;;15.38;8.38;;;9.80;70.00;;;;;;5131148;27;20535;-77
2022/03/08 10:52:38;;;;;;;12.80;7.22;;;10.00;70.40;;;;;;5130826;27;20547;-77
2022/03/08 10:55:14;;;;;;;11.52;7.72;;;10.00;70.30;;;;;;5131337;27;20076;-76
2022/03/08 10:57:43;;;;;;;9.95;7.25;;;10.10;70.30;;;;;;5097511;27;20035;-77
2022/03/08 11:00:13;;;;;;;14.88;7.97;;;10.20;70.20;;;;;;5113916;27;20023;-77
2022/03/08 11:02:57;;;;;;;12.65;7.95;;;10.30;70.10;;;;;;5131456;27;20023;-77
2022/03/08 11:05:28;;;;;;;11.65;7.40;;;10.30;70.20;;;;;;5131370;27;20172;-77
2022/03/08 11:07:57;;;;;;;11.60;7.78;;;10.30;70.40;;;;;;5112245;27;20059;-78
2022/03/08 11:10:24;;;;;;;10.15;7.10;;;10.40;70.60;;;;;;5129303;27;20031;-77
2022/03/08 11:12:50;;;;;;;10.43;7.03;;;10.50;70.70;;;;;;5130901;27;20028;-78
2022/03/08 11:15:17;;;;;;;12.27;6.65;;;10.60;70.60;;;;;;5112803;27;20126;-77
2022/03/08 11:17:46;;;;;;;10.02;6.25;;;10.70;70.50;;;;;;5132157;27;20019;-77
2022/03/08 11:20:15;;;;;;;10.25;7.32;;;10.90;70.60;;;;;;5130886;27;20098;-77
2022/03/08 11:22:42;;;;;;;10.75;7.15;;;11.00;70.40;;;;;;5130502;27;20400;-77
2022/03/08 11:25:18;;;;;;;10.43;7.38;;;11.20;70.30;;;;;;5111180;28;20089;-77
2022/03/08 11:27:48;;;;;;;10.93;7.03;;;11.40;70.10;;;;;;5116379;28;20114;-78
2022/03/08 11:30:21;;;;;;;8.00;6.07;;;11.60;69.70;;;;;;5131622;27;20023;-78
2022/03/08 11:32:58;;;;;;;9.40;6.72;;;11.70;69.00;;;;;;5130988;27;20023;-79
2022/03/08 11:35:39;;;;;;;11.35;6.97;;;11.80;69.80;;;;;;5130266;27;20053;-77
2022/03/08 11:38:05;;;;;;;9.75;7.05;;;11.90;68.60;;;;;;5112366;28;20164;-77
2022/03/08 11:40:33;;;;;;;8.85;6.10;;;11.90;68.20;;;;;;5130780;27;20098;-79
2022/03/08 11:43:07;;;;;;;10.57;7.10;;;12.00;68.50;;;;;;5130646;27;20031;-77
2022/03/08 11:45:33;;;;;;;;;;;12.10;68.20;;;;;;5114793;28;20054;-77
2022/03/08 11:48:05;;;;;;;9.48;6.30;;;12.20;68.10;;;;;;5114940;28;19903;-77
2022/03/08 11:50:33;;;;;;;9.18;6.70;;;12.20;68.10;;;;;;5131201;28;20031;-78
2022/03/08 11:53:12;;;;;;;9.80;6.70;;;12.20;67.10;;;;;;5130357;27;20380;-77
2022/03/08 11:55:43;;;;;;;10.32;6.53;;;12.20;67.30;;;;;;5131012;27;20015;-78
2022/03/08 11:58:18;;;;;;;9.95;6.93;;;12.30;67.60;;;;;;5130501;27;20023;-78
2022/03/08 12:00:58;;;;;;;8.32;6.53;;;12.40;67.50;;;;;;5136324;27;20113;-78
2022/03/08 12:03:23;;;;;;;10.95;6.93;;;12.50;67.20;;;;;;5139007;27;20027;-78
2022/03/08 12:06:06;;;;;;;9.40;6.78;;;12.50;67.30;;;;;;5135979;27;20034;-78
2022/03/08 12:08:38;;;;;;;12.20;6.72;;;12.50;67.20;;;;;;5135097;27;20050;-78
2022/03/08 12:11:26;;;;;;;7.60;6.15;;;12.50;67.00;;;;;;5134346;27;20102;-78
2022/03/08 12:14:05;;;;;;;9.50;6.88;;;12.50;67.20;;;;;;5134195;27;20023;-78
2022/03/08 12:16:31;;;;;;;11.00;7.18;;;12.50;67.40;;;;;;5134210;27;20070;-78
2022/03/08 12:18:59;;;;;;;8.50;6.40;;;12.50;67.60;;;;;;5133684;27;20391;-78
2022/03/08 12:21:29;;;;;;;10.77;7.28;;;12.40;67.30;;;;;;5134007;27;20032;-78
2022/03/08 12:24:05;;;;;;;9.93;6.63;;;12.40;67.90;;;;;;5135987;27;20333;-78
2022/03/08 12:26:47;;;;;;;8.68;6.65;;;12.40;68.20;;;;;;5132258;27;20020;-78
2022/03/08 12:29:33;;;;;;;9.52;7.20;;;12.30;68.10;;;;;;5134595;27;20027;-78
2022/03/08 12:31:58;;;;;;;8.15;5.95;;;12.10;68.50;;;;;;5138427;27;20102;-78
2022/03/08 12:34:35;;;;;;;10.32;6.25;;;12.00;68.90;;;;;;5133281;27;20130;-78
2022/03/08 12:37:14;;;;;;;10.13;6.40;;;11.80;69.70;;;;;;5133598;27;20019;-78
2022/03/08 12:39:57;;;;;;;10.82;6.28;;;11.60;70.00;;;;;;5098564;27;20050;-78
2022/03/08 12:42:37;;;;;;;9.85;5.45;;;11.50;71.30;;;;;;5133882;27;20019;-78
2022/03/08 12:45:39;;;;;;;9.40;5.93;;;11.40;71.60;;;;;;5131391;27;20051;-78
2022/03/08 12:48:20;;;;;;;7.85;5.50;;;11.30;72.50;;;;;;5031767;28;20086;-78